Mixcoatl — XCRY8 — position and weather

sailwx.info

Track history (hours):
 
Tides and Currents Weather Stations Pressure Air Temp Water Temp Dewpoint Dewpoint Depression Visibility Wind Speed Wind Dir Waves Ship Positions

Mixcoatl

Last reported at 2018-Jan-23 15:47 UTC. Time now 2018-Jan-23 21:19 UTC.
Position N 20°33' W 087°02'.

Length 40 m; draft 1.5 m.

Type: Ship. MMSI: 345110010.

Date/timePositionNaut miles runAvg speedWind from/ knotsBaromVisibWave heightAir tempDewpointWater temp
2018-Jan-23 15:47N 20°33' W 087°02'518.5
2018-Jan-23 15:30N 20°29' W 086°59'0 0.0
2018-Jan-23 15:00N 20°29' W 086°59'0 0.0
2018-Jan-23 14:30N 20°29' W 086°59'5 3.7
2018-Jan-23 13:11N 20°33' W 087°01'419.7
2018-Jan-23 13:00N 20°30' W 086°59'1 1.9
2018-Jan-23 12:30N 20°29' W 086°59'0 1.0
2018-Jan-23 12:00N 20°29' W 086°59'2 4.1
2018-Jan-23 11:30N 20°31' W 086°57'0 0.0
2018-Jan-23 03:09N 20°31' W 086°57'0 3.2
2018-Jan-23 03:00N 20°31' W 086°57'0 0.8
2018-Jan-23 02:30N 20°31' W 086°57'0 0.7
2018-Jan-23 02:00N 20°31' W 086°57'0 0.5
2018-Jan-23 01:30N 20°31' W 086°57'0 0.2
2018-Jan-23 00:59N 20°31' W 086°57'0 0.1
2018-Jan-23 00:30N 20°31' W 086°57'0 0.1
2018-Jan-23 00:00N 20°31' W 086°57'1 1.1
2018-Jan-22 23:30N 20°31' W 086°57'2 3.3
2018-Jan-22 22:46N 20°29' W 086°59'313.0
2018-Jan-22 22:30N 20°32' W 086°60'2 1.1
2018-Jan-22 21:02N 20°33' W 087°02'021.0
2018-Jan-22 21:01N 20°32' W 087°01'4 6.9
2018-Jan-22 20:24N 20°29' W 086°59'6 0.8
2018-Jan-22 13:43N 20°34' W 087°01'419.4
2018-Jan-22 13:31N 20°30' W 086°59'2 2.7
2018-Jan-22 12:52N 20°29' W 086°59'0 0.5
2018-Jan-22 12:28N 20°29' W 086°59'1 3.1
2018-Jan-22 12:00N 20°30' W 086°58'1 0.2
2018-Jan-22 04:51N 20°31' W 086°57'3 7.5
2018-Jan-22 04:31N 20°33' W 086°57'1 0.0
2018-Jan-20 10:33N 20°34' W 086°56'116.1
2018-Jan-20 10:30N 20°33' W 086°56'3 0.5
2018-Jan-20 05:13N 20°31' W 086°57'1 2.5
2018-Jan-20 05:00N 20°31' W 086°57'0 0.5
2018-Jan-20 04:30N 20°31' W 086°57'0 0.4
2018-Jan-20 04:00N 20°31' W 086°57'1 1.1
2018-Jan-20 03:29N 20°31' W 086°57'1 1.9
2018-Jan-20 03:00N 20°32' W 086°57'0 0.7
2018-Jan-20 02:30N 20°31' W 086°57'0 0.2
2018-Jan-20 02:00N 20°31' W 086°57'1 1.1
2018-Jan-20 01:30N 20°31' W 086°57'3 6.4
2018-Jan-20 01:00N 20°33' W 086°60'2 1.6
2018-Jan-19 23:52N 20°33' W 087°02'5 7.8
2018-Jan-19 23:14N 20°31' W 086°57'0 1.2
2018-Jan-19 23:00N 20°31' W 086°57'0 0.2
2018-Jan-19 22:30N 20°31' W 086°57'3 5.3
2018-Jan-19 22:00N 20°29' W 086°59'5 0.8
2018-Jan-19 16:23N 20°33' W 087°01'512.6
2018-Jan-19 16:00N 20°29' W 086°59'0 0.0
2018-Jan-19 15:30N 20°29' W 086°59'0 0.0
2018-Jan-19 15:00N 20°29' W 086°59'2 4.4
2018-Jan-19 14:30N 20°30' W 087°00'3 2.4
2018-Jan-19 13:27N 20°32' W 087°01'510.3
2018-Jan-19 13:00N 20°29' W 086°59'0 0.0
2018-Jan-19 12:30N 20°29' W 086°59'3 5.1
2018-Jan-19 12:00N 20°31' W 086°57'0 0.0
2018-Jan-19 04:03N 20°31' W 086°57'0 0.5
2018-Jan-19 04:00N 20°31' W 086°57'4 2.2
2018-Jan-19 02:17N 20°33' W 087°01'413.7
2018-Jan-19 02:00N 20°31' W 086°57'3 2.0
2018-Jan-19 00:20N 20°33' W 087°00'310.5
2018-Jan-19 00:00N 20°31' W 086°57'3 1.7
2018-Jan-18 22:20N 20°33' W 086°59'3 9.1
2018-Jan-18 22:00N 20°31' W 086°57'5 9.0
2018-Jan-18 21:29N 20°33' W 087°02'1 1.3
2018-Jan-18 20:24N 20°33' W 087°00'410.6
2018-Jan-18 20:00N 20°31' W 086°57'4 2.5
2018-Jan-18 18:30N 20°33' W 087°00'4 7.8
2018-Jan-18 18:01N 20°31' W 086°57'3 1.9
2018-Jan-18 16:26N 20°33' W 086°59'3 6.7
2018-Jan-18 16:00N 20°31' W 086°57'0 0.7
2018-Jan-18 15:31N 20°31' W 086°57'0 0.8
2018-Jan-18 15:00N 20°31' W 086°57'3 2.4
2018-Jan-18 13:52N 20°29' W 086°59'0 0.0
2018-Jan-18 13:30N 20°29' W 086°59'0 0.0
2018-Jan-18 13:00N 20°29' W 086°59'0 0.0
2018-Jan-18 12:30N 20°29' W 086°59'3 5.0
2018-Jan-18 12:00N 20°31' W 086°57'0 0.0
2018-Jan-18 11:30N 20°31' W 086°57'0 0.0
2018-Jan-18 02:43N 20°31' W 086°57'0 0.1
2018-Jan-18 02:30N 20°31' W 086°57'0 0.4
2018-Jan-18 02:00N 20°31' W 086°57'0 0.4
2018-Jan-18 01:30N 20°31' W 086°57'4 7.1
2018-Jan-18 01:00N 20°33' W 086°60'1 1.0
2018-Jan-17 23:49N 20°33' W 087°01'  
Track history (hours):
 
Tides and Currents Weather Stations Pressure Air Temp Water Temp Dewpoint Dewpoint Depression Visibility Wind Speed Wind Dir Waves Ship Positions

Mixcoatl

Last reported at 2018-Jan-23 15:47 UTC. Time now 2018-Jan-23 21:19 UTC.
Position N 20°33' W 087°02'.

Length 40 m; draft 1.5 m.

Type: Ship. MMSI: 345110010.

Date/timePositionNaut miles runAvg speedWind from/ knotsBaromVisibWave heightAir tempDewpointWater temp
2018-Jan-23 15:47N 20°33' W 087°02'518.5
2018-Jan-23 15:30N 20°29' W 086°59'0 0.0
2018-Jan-23 15:00N 20°29' W 086°59'0 0.0
2018-Jan-23 14:30N 20°29' W 086°59'5 3.7
2018-Jan-23 13:11N 20°33' W 087°01'419.7
2018-Jan-23 13:00N 20°30' W 086°59'1 1.9
2018-Jan-23 12:30N 20°29' W 086°59'0 1.0
2018-Jan-23 12:00N 20°29' W 086°59'2 4.1
2018-Jan-23 11:30N 20°31' W 086°57'0 0.0
2018-Jan-23 03:09N 20°31' W 086°57'0 3.2
2018-Jan-23 03:00N 20°31' W 086°57'0 0.8
2018-Jan-23 02:30N 20°31' W 086°57'0 0.7
2018-Jan-23 02:00N 20°31' W 086°57'0 0.5
2018-Jan-23 01:30N 20°31' W 086°57'0 0.2
2018-Jan-23 00:59N 20°31' W 086°57'0 0.1
2018-Jan-23 00:30N 20°31' W 086°57'0 0.1
2018-Jan-23 00:00N 20°31' W 086°57'1 1.1
2018-Jan-22 23:30N 20°31' W 086°57'2 3.3
2018-Jan-22 22:46N 20°29' W 086°59'313.0
2018-Jan-22 22:30N 20°32' W 086°60'2 1.1
2018-Jan-22 21:02N 20°33' W 087°02'021.0
2018-Jan-22 21:01N 20°32' W 087°01'4 6.9
2018-Jan-22 20:24N 20°29' W 086°59'6 0.8
2018-Jan-22 13:43N 20°34' W 087°01'419.4
2018-Jan-22 13:31N 20°30' W 086°59'2 2.7
2018-Jan-22 12:52N 20°29' W 086°59'0 0.5
2018-Jan-22 12:28N 20°29' W 086°59'1 3.1
2018-Jan-22 12:00N 20°30' W 086°58'1 0.2
2018-Jan-22 04:51N 20°31' W 086°57'3 7.5
2018-Jan-22 04:31N 20°33' W 086°57'1 0.0
2018-Jan-20 10:33N 20°34' W 086°56'116.1
2018-Jan-20 10:30N 20°33' W 086°56'3 0.5
2018-Jan-20 05:13N 20°31' W 086°57'1 2.5
2018-Jan-20 05:00N 20°31' W 086°57'0 0.5
2018-Jan-20 04:30N 20°31' W 086°57'0 0.4
2018-Jan-20 04:00N 20°31' W 086°57'1 1.1
2018-Jan-20 03:29N 20°31' W 086°57'1 1.9
2018-Jan-20 03:00N 20°32' W 086°57'0 0.7
2018-Jan-20 02:30N 20°31' W 086°57'0 0.2
2018-Jan-20 02:00N 20°31' W 086°57'1 1.1
2018-Jan-20 01:30N 20°31' W 086°57'3 6.4
2018-Jan-20 01:00N 20°33' W 086°60'2 1.6
2018-Jan-19 23:52N 20°33' W 087°02'5 7.8
2018-Jan-19 23:14N 20°31' W 086°57'0 1.2
2018-Jan-19 23:00N 20°31' W 086°57'0 0.2
2018-Jan-19 22:30N 20°31' W 086°57'3 5.3
2018-Jan-19 22:00N 20°29' W 086°59'5 0.8
2018-Jan-19 16:23N 20°33' W 087°01'512.6
2018-Jan-19 16:00N 20°29' W 086°59'0 0.0
2018-Jan-19 15:30N 20°29' W 086°59'0 0.0
2018-Jan-19 15:00N 20°29' W 086°59'2 4.4
2018-Jan-19 14:30N 20°30' W 087°00'3 2.4
2018-Jan-19 13:27N 20°32' W 087°01'510.3
2018-Jan-19 13:00N 20°29' W 086°59'0 0.0
2018-Jan-19 12:30N 20°29' W 086°59'3 5.1
2018-Jan-19 12:00N 20°31' W 086°57'0 0.0
2018-Jan-19 04:03N 20°31' W 086°57'0 0.5
2018-Jan-19 04:00N 20°31' W 086°57'4 2.2
2018-Jan-19 02:17N 20°33' W 087°01'413.7
2018-Jan-19 02:00N 20°31' W 086°57'3 2.0
2018-Jan-19 00:20N 20°33' W 087°00'310.5
2018-Jan-19 00:00N 20°31' W 086°57'3 1.7
2018-Jan-18 22:20N 20°33' W 086°59'3 9.1
2018-Jan-18 22:00N 20°31' W 086°57'5 9.0
2018-Jan-18 21:29N 20°33' W 087°02'1 1.3
2018-Jan-18 20:24N 20°33' W 087°00'410.6
2018-Jan-18 20:00N 20°31' W 086°57'4 2.5
2018-Jan-18 18:30N 20°33' W 087°00'4 7.8
2018-Jan-18 18:01N 20°31' W 086°57'3 1.9
2018-Jan-18 16:26N 20°33' W 086°59'3 6.7
2018-Jan-18 16:00N 20°31' W 086°57'0 0.7
2018-Jan-18 15:31N 20°31' W 086°57'0 0.8
2018-Jan-18 15:00N 20°31' W 086°57'3 2.4
2018-Jan-18 13:52N 20°29' W 086°59'0 0.0
2018-Jan-18 13:30N 20°29' W 086°59'0 0.0
2018-Jan-18 13:00N 20°29' W 086°59'0 0.0
2018-Jan-18 12:30N 20°29' W 086°59'3 5.0
2018-Jan-18 12:00N 20°31' W 086°57'0 0.0
2018-Jan-18 11:30N 20°31' W 086°57'0 0.0
2018-Jan-18 02:43N 20°31' W 086°57'0 0.1
2018-Jan-18 02:30N 20°31' W 086°57'0 0.4
2018-Jan-18 02:00N 20°31' W 086°57'0 0.4
2018-Jan-18 01:30N 20°31' W 086°57'4 7.1
2018-Jan-18 01:00N 20°33' W 086°60'1 1.0
2018-Jan-17 23:49N 20°33' W 087°01'  

Dump ship's entire track history